sensor_id;sensor_type;location;lat;lon;timestamp;P1;durP1;ratioP1;P2;durP2;ratioP2
22476;SDS011;65006;51.698;-0.292;2023-04-25T00:00:30;14.00;;;3.47;;
22476;SDS011;65006;51.698;-0.292;2023-04-25T00:02:56;7.93;;;1.90;;
22476;SDS011;65006;51.698;-0.292;2023-04-25T00:05:24;10.60;;;2.40;;
22476;SDS011;65006;51.698;-0.292;2023-04-25T00:07:50;10.95;;;2.33;;
22476;SDS011;65006;51.698;-0.292;2023-04-25T00:10:17;5.53;;;1.83;;
22476;SDS011;65006;51.698;-0.292;2023-04-25T00:12:43;8.63;;;1.85;;
22476;SDS011;65006;51.698;-0.292;2023-04-25T00:15:09;17.48;;;2.33;;
22476;SDS011;65006;51.698;-0.292;2023-04-25T00:17:35;9.95;;;2.08;;
22476;SDS011;65006;51.698;-0.292;2023-04-25T00:20:03;20.17;;;2.88;;
22476;SDS011;65006;51.698;-0.292;2023-04-25T00:22:36;7.47;;;1.92;;
22476;SDS011;65006;51.698;-0.292;2023-04-25T00:25:05;11.13;;;2.00;;
22476;SDS011;65006;51.698;-0.292;2023-04-25T00:27:31;7.18;;;2.47;;
22476;SDS011;65006;51.698;-0.292;2023-04-25T00:29:57;9.73;;;1.98;;
22476;SDS011;65006;51.698;-0.292;2023-04-25T00:32:24;25.00;;;2.78;;
22476;SDS011;65006;51.698;-0.292;2023-04-25T00:34:50;8.00;;;2.20;;
22476;SDS011;65006;51.698;-0.292;2023-04-25T00:37:16;10.75;;;2.22;;
22476;SDS011;65006;51.698;-0.292;2023-04-25T00:39:43;9.95;;;3.05;;
22476;SDS011;65006;51.698;-0.292;2023-04-25T00:42:09;14.23;;;2.47;;
22476;SDS011;65006;51.698;-0.292;2023-04-25T00:44:35;7.72;;;1.92;;
22476;SDS011;65006;51.698;-0.292;2023-04-25T00:47:03;11.13;;;2.47;;
22476;SDS011;65006;51.698;-0.292;2023-04-25T00:49:29;13.23;;;3.00;;
22476;SDS011;65006;51.698;-0.292;2023-04-25T00:51:55;12.75;;;3.03;;
22476;SDS011;65006;51.698;-0.292;2023-04-25T00:54:22;7.53;;;2.25;;
22476;SDS011;65006;51.698;-0.292;2023-04-25T00:56:48;8.95;;;2.22;;
22476;SDS011;65006;51.698;-0.292;2023-04-25T00:59:14;7.88;;;2.20;;
22476;SDS011;65006;51.698;-0.292;2023-04-25T01:01:40;16.27;;;3.20;;
22476;SDS011;65006;51.698;-0.292;2023-04-25T01:04:06;11.00;;;2.38;;
22476;SDS011;65006;51.698;-0.292;2023-04-25T01:06:33;6.03;;;2.05;;
22476;SDS011;65006;51.698;-0.292;2023-04-25T01:08:59;6.30;;;2.13;;
22476;SDS011;65006;51.698;-0.292;2023-04-25T01:11:25;8.00;;;2.08;;
22476;SDS011;65006;51.698;-0.292;2023-04-25T01:13:51;3.60;;;1.77;;
22476;SDS011;65006;51.698;-0.292;2023-04-25T01:16:17;8.95;;;2.15;;
22476;SDS011;65006;51.698;-0.292;2023-04-25T01:18:43;9.15;;;2.03;;
22476;SDS011;65006;51.698;-0.292;2023-04-25T01:21:10;10.95;;;2.22;;
22476;SDS011;65006;51.698;-0.292;2023-04-25T01:23:38;10.98;;;2.05;;
22476;SDS011;65006;51.698;-0.292;2023-04-25T01:26:05;7.18;;;2.15;;
22476;SDS011;65006;51.698;-0.292;2023-04-25T01:28:32;13.35;;;2.47;;
22476;SDS011;65006;51.698;-0.292;2023-04-25T01:31:00;8.65;;;1.98;;
22476;SDS011;65006;51.698;-0.292;2023-04-25T01:35:52;16.90;;;1.85;;
22476;SDS011;65006;51.698;-0.292;2023-04-25T01:38:18;9.95;;;2.70;;
22476;SDS011;65006;51.698;-0.292;2023-04-25T01:40:45;6.28;;;1.90;;
22476;SDS011;65006;51.698;-0.292;2023-04-25T01:43:12;11.13;;;1.90;;
22476;SDS011;65006;51.698;-0.292;2023-04-25T01:45:39;6.70;;;1.95;;
22476;SDS011;65006;51.698;-0.292;2023-04-25T01:48:06;9.75;;;2.47;;
22476;SDS011;65006;51.698;-0.292;2023-04-25T01:50:32;8.85;;;1.45;;
22476;SDS011;65006;51.698;-0.292;2023-04-25T01:52:58;7.10;;;2.45;;
22476;SDS011;65006;51.698;-0.292;2023-04-25T01:55:25;15.13;;;3.00;;
22476;SDS011;65006;51.698;-0.292;2023-04-25T01:57:51;8.15;;;2.00;;
22476;SDS011;65006;51.698;-0.292;2023-04-25T02:00:17;16.30;;;1.90;;
22476;SDS011;65006;51.698;-0.292;2023-04-25T02:02:43;12.32;;;2.17;;
22476;SDS011;65006;51.698;-0.292;2023-04-25T02:05:09;8.25;;;1.98;;
22476;SDS011;65006;51.698;-0.292;2023-04-25T02:07:35;9.32;;;1.90;;
22476;SDS011;65006;51.698;-0.292;2023-04-25T02:10:01;4.90;;;1.48;;
22476;SDS011;65006;51.698;-0.292;2023-04-25T02:12:27;9.80;;;2.08;;
22476;SDS011;65006;51.698;-0.292;2023-04-25T02:14:53;10.07;;;2.08;;
22476;SDS011;65006;51.698;-0.292;2023-04-25T02:17:19;12.35;;;1.55;;
22476;SDS011;65006;51.698;-0.292;2023-04-25T02:19:46;14.88;;;2.40;;
22476;SDS011;65006;51.698;-0.292;2023-04-25T02:22:13;10.55;;;2.05;;
22476;SDS011;65006;51.698;-0.292;2023-04-25T02:24:39;15.00;;;1.70;;
22476;SDS011;65006;51.698;-0.292;2023-04-25T02:27:05;8.25;;;1.60;;
22476;SDS011;65006;51.698;-0.292;2023-04-25T02:29:31;5.03;;;1.58;;
22476;SDS011;65006;51.698;-0.292;2023-04-25T02:31:57;6.10;;;1.60;;
22476;SDS011;65006;51.698;-0.292;2023-04-25T02:34:23;13.05;;;2.25;;
22476;SDS011;65006;51.698;-0.292;2023-04-25T02:36:49;10.30;;;1.95;;
22476;SDS011;65006;51.698;-0.292;2023-04-25T02:39:16;9.48;;;1.77;;
22476;SDS011;65006;51.698;-0.292;2023-04-25T02:41:42;11.00;;;1.67;;
22476;SDS011;65006;51.698;-0.292;2023-04-25T02:44:08;13.13;;;1.52;;
22476;SDS011;65006;51.698;-0.292;2023-04-25T02:46:34;6.05;;;1.60;;
22476;SDS011;65006;51.698;-0.292;2023-04-25T02:49:00;6.15;;;1.50;;
22476;SDS011;65006;51.698;-0.292;2023-04-25T02:51:26;9.52;;;1.77;;
22476;SDS011;65006;51.698;-0.292;2023-04-25T02:53:52;8.20;;;1.70;;
22476;SDS011;65006;51.698;-0.292;2023-04-25T02:56:18;7.40;;;1.88;;
22476;SDS011;65006;51.698;-0.292;2023-04-25T02:58:44;8.00;;;2.03;;
22476;SDS011;65006;51.698;-0.292;2023-04-25T03:01:10;10.00;;;1.95;;
22476;SDS011;65006;51.698;-0.292;2023-04-25T03:03:36;5.70;;;1.40;;
22476;SDS011;65006;51.698;-0.292;2023-04-25T03:06:02;9.50;;;1.65;;
22476;SDS011;65006;51.698;-0.292;2023-04-25T03:08:28;10.50;;;2.08;;
22476;SDS011;65006;51.698;-0.292;2023-04-25T03:10:57;8.23;;;2.15;;
22476;SDS011;65006;51.698;-0.292;2023-04-25T03:13:23;7.25;;;1.55;;
22476;SDS011;65006;51.698;-0.292;2023-04-25T03:15:49;9.90;;;1.90;;
22476;SDS011;65006;51.698;-0.292;2023-04-25T03:18:15;6.85;;;2.28;;
22476;SDS011;65006;51.698;-0.292;2023-04-25T03:20:42;9.73;;;1.67;;
22476;SDS011;65006;51.698;-0.292;2023-04-25T03:23:08;6.55;;;1.60;;
22476;SDS011;65006;51.698;-0.292;2023-04-25T03:25:34;9.77;;;2.00;;
22476;SDS011;65006;51.698;-0.292;2023-04-25T03:28:00;9.48;;;1.92;;
22476;SDS011;65006;51.698;-0.292;2023-04-25T03:30:26;10.77;;;1.90;;
22476;SDS011;65006;51.698;-0.292;2023-04-25T03:32:52;13.48;;;2.00;;
22476;SDS011;65006;51.698;-0.292;2023-04-25T03:35:18;12.10;;;2.63;;
22476;SDS011;65006;51.698;-0.292;2023-04-25T03:37:44;8.02;;;2.40;;
22476;SDS011;65006;51.698;-0.292;2023-04-25T03:40:10;12.32;;;2.30;;
22476;SDS011;65006;51.698;-0.292;2023-04-25T03:42:36;9.93;;;2.28;;
22476;SDS011;65006;51.698;-0.292;2023-04-25T03:45:02;13.98;;;2.95;;
22476;SDS011;65006;51.698;-0.292;2023-04-25T03:47:28;12.13;;;2.55;;
22476;SDS011;65006;51.698;-0.292;2023-04-25T03:49:55;9.73;;;2.35;;
22476;SDS011;65006;51.698;-0.292;2023-04-25T03:52:20;12.23;;;2.25;;
22476;SDS011;65006;51.698;-0.292;2023-04-25T03:54:46;5.38;;;1.90;;
22476;SDS011;65006;51.698;-0.292;2023-04-25T03:57:12;16.30;;;2.60;;
22476;SDS011;65006;51.698;-0.292;2023-04-25T03:59:39;12.32;;;2.53;;
22476;SDS011;65006;51.698;-0.292;2023-04-25T04:02:05;9.65;;;1.98;;
22476;SDS011;65006;51.698;-0.292;2023-04-25T04:04:31;7.88;;;2.75;;
22476;SDS011;65006;51.698;-0.292;2023-04-25T04:06:57;9.40;;;3.05;;
22476;SDS011;65006;51.698;-0.292;2023-04-25T04:09:23;10.88;;;2.55;;
22476;SDS011;65006;51.698;-0.292;2023-04-25T04:11:50;11.10;;;2.15;;
22476;SDS011;65006;51.698;-0.292;2023-04-25T04:14:16;11.10;;;2.78;;
22476;SDS011;65006;51.698;-0.292;2023-04-25T04:16:42;15.57;;;2.22;;
22476;SDS011;65006;51.698;-0.292;2023-04-25T04:19:07;12.88;;;2.75;;
22476;SDS011;65006;51.698;-0.292;2023-04-25T04:21:34;6.72;;;2.20;;
22476;SDS011;65006;51.698;-0.292;2023-04-25T04:24:00;8.63;;;1.92;;
22476;SDS011;65006;51.698;-0.292;2023-04-25T04:26:26;6.28;;;2.20;;
22476;SDS011;65006;51.698;-0.292;2023-04-25T04:28:52;4.78;;;1.90;;
22476;SDS011;65006;51.698;-0.292;2023-04-25T04:33:45;10.32;;;2.25;;
22476;SDS011;65006;51.698;-0.292;2023-04-25T04:36:11;12.30;;;2.90;;
22476;SDS011;65006;51.698;-0.292;2023-04-25T04:38:38;6.38;;;1.70;;
22476;SDS011;65006;51.698;-0.292;2023-04-25T04:41:06;16.10;;;2.20;;
22476;SDS011;65006;51.698;-0.292;2023-04-25T04:43:32;10.15;;;2.17;;
22476;SDS011;65006;51.698;-0.292;2023-04-25T04:46:00;6.18;;;2.22;;
22476;SDS011;65006;51.698;-0.292;2023-04-25T04:48:26;7.20;;;1.88;;
22476;SDS011;65006;51.698;-0.292;2023-04-25T04:53:18;6.47;;;1.50;;
22476;SDS011;65006;51.698;-0.292;2023-04-25T04:55:44;9.57;;;2.40;;
22476;SDS011;65006;51.698;-0.292;2023-04-25T04:58:11;10.73;;;2.22;;
22476;SDS011;65006;51.698;-0.292;2023-04-25T05:00:37;5.78;;;1.58;;
22476;SDS011;65006;51.698;-0.292;2023-04-25T05:03:03;10.70;;;2.30;;
22476;SDS011;65006;51.698;-0.292;2023-04-25T05:05:30;5.88;;;2.00;;
22476;SDS011;65006;51.698;-0.292;2023-04-25T05:07:56;4.35;;;2.03;;
22476;SDS011;65006;51.698;-0.292;2023-04-25T05:10:22;11.20;;;1.25;;
22476;SDS011;65006;51.698;-0.292;2023-04-25T05:12:48;12.45;;;2.45;;
22476;SDS011;65006;51.698;-0.292;2023-04-25T05:15:14;6.40;;;1.77;;
22476;SDS011;65006;51.698;-0.292;2023-04-25T05:17:40;8.00;;;1.60;;
22476;SDS011;65006;51.698;-0.292;2023-04-25T05:20:07;9.05;;;2.08;;
22476;SDS011;65006;51.698;-0.292;2023-04-25T05:22:34;5.72;;;1.45;;
22476;SDS011;65006;51.698;-0.292;2023-04-25T05:25:00;9.23;;;1.50;;
22476;SDS011;65006;51.698;-0.292;2023-04-25T05:27:26;8.00;;;1.85;;
22476;SDS011;65006;51.698;-0.292;2023-04-25T05:29:52;5.95;;;1.38;;
22476;SDS011;65006;51.698;-0.292;2023-04-25T05:32:18;5.45;;;2.20;;
22476;SDS011;65006;51.698;-0.292;2023-04-25T05:34:44;4.93;;;1.50;;
22476;SDS011;65006;51.698;-0.292;2023-04-25T05:37:10;10.18;;;1.65;;
22476;SDS011;65006;51.698;-0.292;2023-04-25T05:39:36;8.52;;;1.77;;
22476;SDS011;65006;51.698;-0.292;2023-04-25T05:42:02;8.82;;;2.42;;
22476;SDS011;65006;51.698;-0.292;2023-04-25T05:44:28;9.50;;;2.08;;
22476;SDS011;65006;51.698;-0.292;2023-04-25T05:46:54;6.03;;;1.73;;
22476;SDS011;65006;51.698;-0.292;2023-04-25T05:49:20;8.07;;;1.77;;
22476;SDS011;65006;51.698;-0.292;2023-04-25T05:51:46;7.35;;;1.83;;
22476;SDS011;65006;51.698;-0.292;2023-04-25T05:54:12;5.95;;;1.67;;
22476;SDS011;65006;51.698;-0.292;2023-04-25T05:56:38;4.88;;;1.70;;
22476;SDS011;65006;51.698;-0.292;2023-04-25T05:59:04;7.75;;;1.55;;
22476;SDS011;65006;51.698;-0.292;2023-04-25T06:01:31;9.43;;;1.70;;
22476;SDS011;65006;51.698;-0.292;2023-04-25T06:03:57;8.65;;;1.83;;
22476;SDS011;65006;51.698;-0.292;2023-04-25T06:06:23;6.18;;;1.20;;
22476;SDS011;65006;51.698;-0.292;2023-04-25T06:08:49;9.80;;;1.48;;
22476;SDS011;65006;51.698;-0.292;2023-04-25T06:11:15;11.93;;;2.45;;
22476;SDS011;65006;51.698;-0.292;2023-04-25T06:13:41;6.82;;;1.95;;
22476;SDS011;65006;51.698;-0.292;2023-04-25T06:16:08;6.60;;;1.63;;
22476;SDS011;65006;51.698;-0.292;2023-04-25T06:18:35;5.65;;;1.35;;
22476;SDS011;65006;51.698;-0.292;2023-04-25T06:21:01;12.45;;;2.25;;
22476;SDS011;65006;51.698;-0.292;2023-04-25T06:23:27;6.78;;;1.70;;
22476;SDS011;65006;51.698;-0.292;2023-04-25T06:25:53;7.20;;;1.48;;
22476;SDS011;65006;51.698;-0.292;2023-04-25T06:28:19;7.95;;;1.50;;
22476;SDS011;65006;51.698;-0.292;2023-04-25T06:30:47;8.68;;;1.90;;
22476;SDS011;65006;51.698;-0.292;2023-04-25T06:33:13;7.88;;;1.52;;
22476;SDS011;65006;51.698;-0.292;2023-04-25T06:35:39;11.02;;;1.75;;
22476;SDS011;65006;51.698;-0.292;2023-04-25T06:38:06;10.50;;;1.45;;
22476;SDS011;65006;51.698;-0.292;2023-04-25T06:40:32;9.13;;;1.52;;
22476;SDS011;65006;51.698;-0.292;2023-04-25T06:42:58;3.38;;;1.27;;
22476;SDS011;65006;51.698;-0.292;2023-04-25T06:45:25;7.95;;;1.80;;
22476;SDS011;65006;51.698;-0.292;2023-04-25T06:47:51;5.20;;;1.17;;
22476;SDS011;65006;51.698;-0.292;2023-04-25T06:50:17;8.15;;;1.73;;
22476;SDS011;65006;51.698;-0.292;2023-04-25T06:52:43;6.15;;;1.20;;
22476;SDS011;65006;51.698;-0.292;2023-04-25T06:55:10;10.93;;;1.88;;
22476;SDS011;65006;51.698;-0.292;2023-04-25T06:57:36;9.73;;;1.50;;
22476;SDS011;65006;51.698;-0.292;2023-04-25T07:00:02;8.70;;;1.80;;
22476;SDS011;65006;51.698;-0.292;2023-04-25T07:02:30;6.90;;;1.15;;
22476;SDS011;65006;51.698;-0.292;2023-04-25T07:04:56;6.75;;;1.40;;
22476;SDS011;65006;51.698;-0.292;2023-04-25T07:07:24;4.88;;;1.00;;
22476;SDS011;65006;51.698;-0.292;2023-04-25T07:09:50;7.30;;;1.33;;
22476;SDS011;65006;51.698;-0.292;2023-04-25T07:12:16;5.68;;;2.00;;
22476;SDS011;65006;51.698;-0.292;2023-04-25T07:14:42;4.65;;;1.48;;
22476;SDS011;65006;51.698;-0.292;2023-04-25T07:17:08;8.02;;;1.70;;
22476;SDS011;65006;51.698;-0.292;2023-04-25T07:19:34;6.47;;;1.58;;
22476;SDS011;65006;51.698;-0.292;2023-04-25T07:22:02;5.45;;;1.30;;
22476;SDS011;65006;51.698;-0.292;2023-04-25T07:24:28;5.18;;;1.15;;
22476;SDS011;65006;51.698;-0.292;2023-04-25T07:26:54;6.82;;;1.83;;
22476;SDS011;65006;51.698;-0.292;2023-04-25T07:29:21;4.30;;;1.02;;
22476;SDS011;65006;51.698;-0.292;2023-04-25T07:31:47;7.63;;;1.48;;
22476;SDS011;65006;51.698;-0.292;2023-04-25T07:34:13;6.90;;;1.40;;
22476;SDS011;65006;51.698;-0.292;2023-04-25T07:36:39;7.35;;;1.80;;
22476;SDS011;65006;51.698;-0.292;2023-04-25T07:39:05;9.95;;;1.20;;
22476;SDS011;65006;51.698;-0.292;2023-04-25T07:41:31;5.97;;;1.33;;
22476;SDS011;65006;51.698;-0.292;2023-04-25T07:43:58;5.47;;;1.35;;
22476;SDS011;65006;51.698;-0.292;2023-04-25T07:46:24;6.93;;;1.63;;
22476;SDS011;65006;51.698;-0.292;2023-04-25T07:48:51;3.65;;;1.35;;
22476;SDS011;65006;51.698;-0.292;2023-04-25T07:51:17;6.22;;;1.48;;
22476;SDS011;65006;51.698;-0.292;2023-04-25T07:53:45;9.65;;;1.55;;
22476;SDS011;65006;51.698;-0.292;2023-04-25T07:58:37;6.65;;;1.13;;
22476;SDS011;65006;51.698;-0.292;2023-04-25T08:01:03;7.40;;;1.45;;
22476;SDS011;65006;51.698;-0.292;2023-04-25T08:03:29;7.20;;;1.05;;
22476;SDS011;65006;51.698;-0.292;2023-04-25T08:05:55;7.50;;;1.90;;
22476;SDS011;65006;51.698;-0.292;2023-04-25T08:08:22;5.70;;;0.77;;
22476;SDS011;65006;51.698;-0.292;2023-04-25T08:10:48;7.53;;;1.42;;
22476;SDS011;65006;51.698;-0.292;2023-04-25T08:13:15;4.20;;;1.20;;
22476;SDS011;65006;51.698;-0.292;2023-04-25T08:15:41;8.32;;;1.23;;
22476;SDS011;65006;51.698;-0.292;2023-04-25T08:18:07;5.90;;;1.38;;
22476;SDS011;65006;51.698;-0.292;2023-04-25T08:20:33;6.65;;;1.08;;
22476;SDS011;65006;51.698;-0.292;2023-04-25T08:22:59;8.23;;;1.20;;
22476;SDS011;65006;51.698;-0.292;2023-04-25T08:25:25;7.97;;;1.30;;
22476;SDS011;65006;51.698;-0.292;2023-04-25T08:27:51;9.07;;;1.42;;
22476;SDS011;65006;51.698;-0.292;2023-04-25T08:30:17;2.70;;;0.90;;
22476;SDS011;65006;51.698;-0.292;2023-04-25T08:32:44;6.75;;;1.52;;
22476;SDS011;65006;51.698;-0.292;2023-04-25T08:35:10;3.65;;;0.70;;
22476;SDS011;65006;51.698;-0.292;2023-04-25T08:37:36;2.95;;;1.15;;
22476;SDS011;65006;51.698;-0.292;2023-04-25T08:40:03;7.70;;;1.38;;
22476;SDS011;65006;51.698;-0.292;2023-04-25T08:42:32;5.60;;;1.08;;
22476;SDS011;65006;51.698;-0.292;2023-04-25T08:45:00;3.53;;;1.00;;
22476;SDS011;65006;51.698;-0.292;2023-04-25T08:49:56;3.13;;;0.88;;
22476;SDS011;65006;51.698;-0.292;2023-04-25T08:52:23;10.88;;;1.40;;
22476;SDS011;65006;51.698;-0.292;2023-04-25T08:57:16;4.28;;;1.10;;
22476;SDS011;65006;51.698;-0.292;2023-04-25T08:59:42;9.73;;;1.30;;
22476;SDS011;65006;51.698;-0.292;2023-04-25T09:02:11;7.45;;;1.27;;
22476;SDS011;65006;51.698;-0.292;2023-04-25T09:04:42;2.47;;;0.80;;
22476;SDS011;65006;51.698;-0.292;2023-04-25T09:07:08;7.88;;;1.60;;
22476;SDS011;65006;51.698;-0.292;2023-04-25T09:09:34;3.00;;;1.05;;
22476;SDS011;65006;51.698;-0.292;2023-04-25T09:12:01;4.68;;;1.23;;
22476;SDS011;65006;51.698;-0.292;2023-04-25T09:14:27;3.67;;;0.80;;
22476;SDS011;65006;51.698;-0.292;2023-04-25T09:19:22;3.28;;;0.90;;
22476;SDS011;65006;51.698;-0.292;2023-04-25T09:21:50;8.82;;;1.08;;
22476;SDS011;65006;51.698;-0.292;2023-04-25T09:24:16;4.75;;;0.85;;
22476;SDS011;65006;51.698;-0.292;2023-04-25T09:26:45;3.00;;;1.10;;
22476;SDS011;65006;51.698;-0.292;2023-04-25T09:29:11;12.90;;;1.00;;
22476;SDS011;65006;51.698;-0.292;2023-04-25T09:31:37;3.97;;;1.00;;
22476;SDS011;65006;51.698;-0.292;2023-04-25T09:34:03;3.67;;;0.70;;
22476;SDS011;65006;51.698;-0.292;2023-04-25T09:36:29;3.67;;;1.25;;
22476;SDS011;65006;51.698;-0.292;2023-04-25T09:38:56;5.00;;;1.20;;
22476;SDS011;65006;51.698;-0.292;2023-04-25T09:41:23;5.78;;;1.20;;
22476;SDS011;65006;51.698;-0.292;2023-04-25T09:43:49;11.75;;;2.30;;
22476;SDS011;65006;51.698;-0.292;2023-04-25T09:46:15;8.02;;;0.88;;
22476;SDS011;65006;51.698;-0.292;2023-04-25T09:48:47;4.28;;;1.05;;
22476;SDS011;65006;51.698;-0.292;2023-04-25T09:51:14;3.28;;;0.63;;
22476;SDS011;65006;51.698;-0.292;2023-04-25T09:53:40;3.08;;;0.50;;
22476;SDS011;65006;51.698;-0.292;2023-04-25T09:58:33;2.13;;;0.70;;
22476;SDS011;65006;51.698;-0.292;2023-04-25T10:03:25;7.82;;;0.80;;
22476;SDS011;65006;51.698;-0.292;2023-04-25T10:05:52;2.33;;;0.70;;
22476;SDS011;65006;51.698;-0.292;2023-04-25T10:08:18;4.28;;;0.85;;
22476;SDS011;65006;51.698;-0.292;2023-04-25T10:10:46;5.18;;;0.82;;
22476;SDS011;65006;51.698;-0.292;2023-04-25T10:15:39;2.80;;;0.75;;
22476;SDS011;65006;51.698;-0.292;2023-04-25T10:18:06;2.35;;;0.85;;
22476;SDS011;65006;51.698;-0.292;2023-04-25T10:20:32;3.55;;;0.80;;
22476;SDS011;65006;51.698;-0.292;2023-04-25T10:23:01;3.50;;;0.70;;
22476;SDS011;65006;51.698;-0.292;2023-04-25T10:25:29;3.80;;;0.80;;
22476;SDS011;65006;51.698;-0.292;2023-04-25T10:27:56;3.85;;;0.80;;
22476;SDS011;65006;51.698;-0.292;2023-04-25T10:30:22;1.38;;;0.93;;
22476;SDS011;65006;51.698;-0.292;2023-04-25T10:32:48;2.72;;;0.82;;
22476;SDS011;65006;51.698;-0.292;2023-04-25T10:35:16;3.30;;;0.88;;
22476;SDS011;65006;51.698;-0.292;2023-04-25T10:40:24;4.35;;;0.95;;
22476;SDS011;65006;51.698;-0.292;2023-04-25T10:42:53;5.20;;;1.40;;
22476;SDS011;65006;51.698;-0.292;2023-04-25T10:45:20;4.40;;;0.80;;
22476;SDS011;65006;51.698;-0.292;2023-04-25T10:47:46;3.65;;;0.57;;
22476;SDS011;65006;51.698;-0.292;2023-04-25T10:50:14;5.15;;;0.85;;
22476;SDS011;65006;51.698;-0.292;2023-04-25T10:52:42;5.50;;;0.75;;
22476;SDS011;65006;51.698;-0.292;2023-04-25T10:55:09;4.95;;;1.20;;
22476;SDS011;65006;51.698;-0.292;2023-04-25T10:57:39;4.68;;;0.80;;
22476;SDS011;65006;51.698;-0.292;2023-04-25T11:02:36;3.60;;;0.70;;
22476;SDS011;65006;51.698;-0.292;2023-04-25T11:05:03;1.27;;;0.70;;
22476;SDS011;65006;51.698;-0.292;2023-04-25T11:10:04;2.72;;;0.82;;
22476;SDS011;65006;51.698;-0.292;2023-04-25T11:12:31;3.10;;;0.88;;
22476;SDS011;65006;51.698;-0.292;2023-04-25T11:15:00;3.35;;;0.68;;
22476;SDS011;65006;51.698;-0.292;2023-04-25T11:17:27;5.68;;;0.93;;
22476;SDS011;65006;51.698;-0.292;2023-04-25T11:19:53;4.82;;;1.15;;
22476;SDS011;65006;51.698;-0.292;2023-04-25T11:22:20;9.05;;;1.15;;
22476;SDS011;65006;51.698;-0.292;2023-04-25T11:24:46;5.03;;;0.95;;
22476;SDS011;65006;51.698;-0.292;2023-04-25T11:27:13;1.15;;;0.60;;
22476;SDS011;65006;51.698;-0.292;2023-04-25T11:29:39;2.75;;;0.85;;
22476;SDS011;65006;51.698;-0.292;2023-04-25T11:32:06;1.20;;;0.70;;
22476;SDS011;65006;51.698;-0.292;2023-04-25T11:34:32;4.28;;;1.10;;
22476;SDS011;65006;51.698;-0.292;2023-04-25T11:36:59;1.98;;;0.60;;
22476;SDS011;65006;51.698;-0.292;2023-04-25T11:41:51;3.05;;;1.00;;
22476;SDS011;65006;51.698;-0.292;2023-04-25T11:44:18;2.67;;;0.80;;
22476;SDS011;65006;51.698;-0.292;2023-04-25T11:49:10;4.78;;;1.20;;
22476;SDS011;65006;51.698;-0.292;2023-04-25T11:54:05;3.10;;;0.82;;
22476;SDS011;65006;51.698;-0.292;2023-04-25T11:56:32;1.92;;;0.80;;
22476;SDS011;65006;51.698;-0.292;2023-04-25T11:58:59;3.47;;;0.80;;
22476;SDS011;65006;51.698;-0.292;2023-04-25T12:03:54;4.28;;;0.93;;
22476;SDS011;65006;51.698;-0.292;2023-04-25T12:06:20;0.73;;;0.50;;
22476;SDS011;65006;51.698;-0.292;2023-04-25T12:08:59;4.20;;;0.90;;
22476;SDS011;65006;51.698;-0.292;2023-04-25T12:11:25;3.95;;;0.65;;
22476;SDS011;65006;51.698;-0.292;2023-04-25T12:13:51;6.50;;;1.17;;
22476;SDS011;65006;51.698;-0.292;2023-04-25T12:16:18;4.63;;;1.23;;
22476;SDS011;65006;51.698;-0.292;2023-04-25T12:18:45;1.42;;;0.80;;
22476;SDS011;65006;51.698;-0.292;2023-04-25T12:21:11;5.22;;;1.00;;
22476;SDS011;65006;51.698;-0.292;2023-04-25T12:23:38;1.85;;;0.90;;
22476;SDS011;65006;51.698;-0.292;2023-04-25T12:26:06;2.30;;;0.98;;
22476;SDS011;65006;51.698;-0.292;2023-04-25T12:28:32;3.60;;;0.80;;
22476;SDS011;65006;51.698;-0.292;2023-04-25T12:31:03;3.70;;;0.95;;
22476;SDS011;65006;51.698;-0.292;2023-04-25T12:33:30;2.70;;;1.05;;
22476;SDS011;65006;51.698;-0.292;2023-04-25T12:35:56;2.00;;;0.90;;
22476;SDS011;65006;51.698;-0.292;2023-04-25T12:40:49;1.17;;;0.90;;
22476;SDS011;65006;51.698;-0.292;2023-04-25T12:43:15;2.03;;;1.27;;
22476;SDS011;65006;51.698;-0.292;2023-04-25T12:45:41;5.15;;;0.95;;
22476;SDS011;65006;51.698;-0.292;2023-04-25T12:48:07;5.00;;;1.08;;
22476;SDS011;65006;51.698;-0.292;2023-04-25T12:50:33;1.67;;;0.88;;
22476;SDS011;65006;51.698;-0.292;2023-04-25T12:52:59;2.88;;;0.75;;
22476;SDS011;65006;51.698;-0.292;2023-04-25T12:55:25;4.63;;;0.93;;
22476;SDS011;65006;51.698;-0.292;2023-04-25T12:57:51;3.25;;;1.02;;
22476;SDS011;65006;51.698;-0.292;2023-04-25T13:00:17;3.70;;;0.88;;
22476;SDS011;65006;51.698;-0.292;2023-04-25T13:02:45;1.70;;;0.60;;
22476;SDS011;65006;51.698;-0.292;2023-04-25T13:05:14;4.45;;;1.10;;
22476;SDS011;65006;51.698;-0.292;2023-04-25T13:07:40;5.05;;;1.05;;
22476;SDS011;65006;51.698;-0.292;2023-04-25T13:10:06;3.60;;;0.85;;
22476;SDS011;65006;51.698;-0.292;2023-04-25T13:12:32;2.50;;;0.90;;
22476;SDS011;65006;51.698;-0.292;2023-04-25T13:14:58;3.17;;;0.85;;
22476;SDS011;65006;51.698;-0.292;2023-04-25T13:17:24;1.58;;;0.70;;
22476;SDS011;65006;51.698;-0.292;2023-04-25T13:19:50;11.00;;;1.02;;
22476;SDS011;65006;51.698;-0.292;2023-04-25T13:22:16;3.88;;;1.10;;
22476;SDS011;65006;51.698;-0.292;2023-04-25T13:24:45;3.53;;;1.45;;
22476;SDS011;65006;51.698;-0.292;2023-04-25T13:27:11;2.97;;;1.10;;
22476;SDS011;65006;51.698;-0.292;2023-04-25T13:29:36;5.25;;;1.20;;
22476;SDS011;65006;51.698;-0.292;2023-04-25T13:32:05;3.30;;;1.23;;
22476;SDS011;65006;51.698;-0.292;2023-04-25T13:34:31;1.63;;;1.25;;
22476;SDS011;65006;51.698;-0.292;2023-04-25T13:36:57;6.80;;;1.20;;
22476;SDS011;65006;51.698;-0.292;2023-04-25T13:39:23;1.88;;;0.88;;
22476;SDS011;65006;51.698;-0.292;2023-04-25T13:41:50;1.80;;;1.02;;
22476;SDS011;65006;51.698;-0.292;2023-04-25T13:44:16;3.15;;;1.30;;
22476;SDS011;65006;51.698;-0.292;2023-04-25T13:46:42;6.75;;;1.23;;
22476;SDS011;65006;51.698;-0.292;2023-04-25T13:49:08;2.85;;;1.23;;
22476;SDS011;65006;51.698;-0.292;2023-04-25T13:51:34;8.45;;;1.40;;
22476;SDS011;65006;51.698;-0.292;2023-04-25T13:54:00;4.43;;;1.52;;
22476;SDS011;65006;51.698;-0.292;2023-04-25T13:56:26;1.58;;;1.20;;
22476;SDS011;65006;51.698;-0.292;2023-04-25T13:58:52;2.40;;;1.48;;
22476;SDS011;65006;51.698;-0.292;2023-04-25T14:01:18;5.10;;;1.50;;
22476;SDS011;65006;51.698;-0.292;2023-04-25T14:03:46;2.67;;;1.48;;
22476;SDS011;65006;51.698;-0.292;2023-04-25T14:06:11;3.50;;;1.30;;
22476;SDS011;65006;51.698;-0.292;2023-04-25T14:11:04;1.80;;;1.00;;
22476;SDS011;65006;51.698;-0.292;2023-04-25T14:13:30;3.40;;;1.20;;
22476;SDS011;65006;51.698;-0.292;2023-04-25T14:15:56;7.43;;;1.40;;
22476;SDS011;65006;51.698;-0.292;2023-04-25T14:18:22;3.10;;;1.55;;
22476;SDS011;65006;51.698;-0.292;2023-04-25T14:20:48;2.15;;;1.08;;
22476;SDS011;65006;51.698;-0.292;2023-04-25T14:23:14;5.03;;;1.35;;
22476;SDS011;65006;51.698;-0.292;2023-04-25T14:25:42;2.70;;;0.95;;
22476;SDS011;65006;51.698;-0.292;2023-04-25T14:28:09;5.55;;;1.40;;
22476;SDS011;65006;51.698;-0.292;2023-04-25T14:30:35;4.57;;;1.38;;
22476;SDS011;65006;51.698;-0.292;2023-04-25T14:33:01;3.53;;;1.20;;
22476;SDS011;65006;51.698;-0.292;2023-04-25T14:35:27;1.70;;;1.35;;
22476;SDS011;65006;51.698;-0.292;2023-04-25T14:37:53;4.75;;;1.20;;
22476;SDS011;65006;51.698;-0.292;2023-04-25T14:40:19;2.60;;;1.65;;
22476;SDS011;65006;51.698;-0.292;2023-04-25T14:42:48;3.35;;;1.20;;
22476;SDS011;65006;51.698;-0.292;2023-04-25T14:47:40;4.95;;;1.40;;
22476;SDS011;65006;51.698;-0.292;2023-04-25T14:50:06;3.17;;;1.20;;
22476;SDS011;65006;51.698;-0.292;2023-04-25T14:54:59;2.78;;;1.27;;
22476;SDS011;65006;51.698;-0.292;2023-04-25T14:57:29;1.73;;;1.35;;
22476;SDS011;65006;51.698;-0.292;2023-04-25T14:59:55;5.28;;;1.65;;
22476;SDS011;65006;51.698;-0.292;2023-04-25T15:02:23;3.88;;;1.20;;
22476;SDS011;65006;51.698;-0.292;2023-04-25T15:04:49;2.67;;;1.10;;
22476;SDS011;65006;51.698;-0.292;2023-04-25T15:07:15;1.60;;;1.50;;
22476;SDS011;65006;51.698;-0.292;2023-04-25T15:09:42;6.20;;;1.90;;
22476;SDS011;65006;51.698;-0.292;2023-04-25T15:12:08;3.35;;;1.30;;
22476;SDS011;65006;51.698;-0.292;2023-04-25T15:14:34;3.03;;;1.65;;
22476;SDS011;65006;51.698;-0.292;2023-04-25T15:17:00;5.45;;;2.05;;
22476;SDS011;65006;51.698;-0.292;2023-04-25T15:21:53;3.03;;;1.30;;